Latest Coastal Weather Observations for Brisbane Airport

IDQ60701

Issued at 11:25 pm EST Monday 20 October 2014 (issued every 10 minutes, with the page automatically refreshed every 10 minutes)

About coastal observations | Map of coastal stations | Coastal observations for QLD | Marine services | Other Formats
Station Details ID: 040842 Name: BRISBANE AERO Lat: -27.39 Lon: 153.13 Height: 4.51 m
Data from the previous 72 hours. | See also: Recent months at Brisbane Airport
Date/Time
EST
Temp

°C
Wind Pressure Rain
since 9am
mm
Weather Cloud Vis
km
Sea
Height
m
Swell
Dir
 
Speed
knots
Gust
knots
hPa Trend Height
m
Period
s
Dir
20/11:00pm 18.8 S 3 5 1026.7 - 0.0 - Mostly clear 10 - - - -
20/10:30pm 19.0 S 5 7 1026.9 - 0.0 - Mostly clear 10 - - - -
20/10:00pm 20.4 SSE 6 9 1026.9 - 0.0 - Mostly clear 10 - - - -
20/09:30pm 19.6 S 5 8 1026.9 - 0.0 - Mostly clear 10 - - - -
20/09:00pm 19.9 SE 6 10 1026.7 R 0.0 Fine Mostly clear 30 - - - -
20/08:30pm 20.6 ESE 5 9 1026.4 - 0.0 - Mostly clear 10 - - - -
20/08:00pm 20.7 ESE 6 9 1026.0 - 0.0 - - 10 - - - -
20/07:30pm 20.5 E 5 7 1025.6 - 0.0 - - 10 - - - -
20/07:00pm 20.7 E 5 9 1025.0 - 0.0 - - 10 - - - -
20/06:30pm 20.7 ENE 6 9 1024.4 - 0.0 - - 10 - - - -
20/06:00pm 21.0 ENE 7 10 1023.8 S 0.0 Smoke Mostly clear 30 - - - -
20/05:30pm 21.5 ENE 7 11 1023.2 - 0.0 - - 10 - - - -
20/05:00pm 22.1 NE 7 10 1022.7 - 0.0 - - 10 - - - -
20/04:30pm 22.4 NNE 9 13 1022.5 - 0.0 - - 10 - - - -
20/04:00pm 22.8 NE 9 13 1022.2 - 0.0 - Mostly clear 10 - - - -
20/03:30pm 22.8 NE 11 15 1022.0 - 0.0 - Mostly clear 10 - - - -
20/03:00pm 23.3 NE 11 15 1021.9 F 0.0 Smoke Mostly clear 30 - - - -
20/02:30pm 23.7 NNE 11 15 1022.0 - 0.0 - Mostly clear 10 - - - -
20/02:00pm 23.8 NNE 12 16 1022.2 - 0.0 - Mostly clear 10 - - - -
20/01:30pm 24.0 NE 11 15 1022.7 - 0.0 - Mostly clear 10 - - - -
20/01:00pm 23.8 NNE 11 15 1022.9 - 0.0 - Mostly clear 10 - - - -
20/12:30pm 23.2 NNE 11 14 1023.5 - 0.0 - Mostly clear 10 - - - -
20/12:00pm 22.8 NNE 10 14 1023.8 F 0.0 Smoke Mostly clear 30 - - - -
20/11:30am 23.6 N 10 14 1024.3 - 0.0 - Mostly clear 10 - - - -
20/11:00am 23.1 N 10 14 1024.7 - 0.0 - Mostly clear 10 - - - -
20/10:30am 22.7 NNE 9 12 1025.2 - 0.0 - Mostly clear 10 - - - -
20/10:00am 22.2 NNE 8 12 1025.6 - 0.0 - Mostly clear 10 - - - -
20/09:30am 22.5 N 8 13 1025.6 - 0.0 - Mostly clear 10 - - - -
20/09:00am 22.0 NNE 7 12 1025.7 F 0.0 Fine Mostly clear 30 - - - -
20/08:30am 21.7 NNE 7 9 1025.8 - 0.0 - Mostly clear 10 - - - -
20/08:00am 21.1 E 4 6 1025.8 - 0.0 - Mostly clear 10 - - - -
20/07:30am 19.9 SW 6 7 1025.7 - 0.0 - Mostly clear 10 - - - -
20/07:00am 18.3 SSW 7 8 1025.6 - 0.0 - Mostly clear 10 - - - -
20/06:30am 16.5 SSW 6 8 1025.3 - 0.0 - Mostly clear 10 - - - -
20/06:00am 14.8 SSW 8 10 1025.1 F 0.0 Fine Mostly clear 30 - - - -
20/05:30am 13.8 SSW 7 9 1024.9 - 0.0 - Mostly clear 10 - - - -
20/05:00am 14.5 SSW 7 8 1024.6 - 0.0 - Mostly clear 10 - - - -
20/04:30am 14.3 SSW 6 7 1024.6 - 0.0 - Mostly clear 10 - - - -
20/04:00am 14.7 SSW 7 8 1024.5 - 0.0 - Mostly clear 10 - - - -
20/03:30am 15.3 SSW 6 7 1024.4 - 0.0 - Mostly clear 10 - - - -
20/03:00am 14.4 SSW 5 6 1024.2 F 0.0 Fine Mostly clear 25 - - - -
20/02:30am 15.0 E 2 4 1024.5 - 0.0 - Mostly clear 10 - - - -
20/02:00am 17.5 ENE 4 5 1024.7 - 0.0 - Mostly clear 10 - - - -
20/01:30am 18.7 ENE 4 5 1024.9 - 0.0 - Mostly clear 10 - - - -
20/01:00am 19.2 ENE 4 5 1025.4 - 0.0 - Mostly clear 10 - - - -
20/12:30am 19.4 ENE 5 6 1025.7 - 0.0 - Mostly clear 10 - - - -
20/12:00am 19.1 ENE 3 4 1025.7 S 0.0 Fine Mostly clear 25 - - - -
 
Date/Time
EST
Temp

°C
Wind Pressure Rain
since 9am
mm
Weather Cloud Vis
km
Sea
Height
m
Swell
Dir
 
Speed
knots
Gust
knots
hPa Trend Height
m
Period
s
Dir
19/11:30pm 19.1 ENE 3 5 1026.2 - 0.0 - Mostly clear 10 - - - -
19/11:00pm 19.4 ENE 5 8 1026.4 - 0.0 - Mostly clear 10 - - - -
19/10:30pm 19.5 ENE 5 8 1026.5 - 0.0 - Mostly clear 10 - - - -
19/10:00pm 19.6 E 6 9 1026.5 - 0.0 - Mostly clear 10 - - - -
19/09:30pm 19.7 E 6 10 1026.5 - 0.0 - Mostly clear 10 - - - -
19/09:00pm 19.7 E 7 12 1026.1 F 0.0 Fine Mostly clear 25 - - - -
19/08:30pm 19.7 E 7 11 1026.3 - 0.0 - Mostly clear 10 - - - -
19/08:00pm 19.9 E 7 11 1026.1 - 0.0 - Mostly clear 10 - - - -
19/07:30pm 19.9 E 7 12 1025.9 - 0.0 - Mostly clear 10 - - - -
19/07:00pm 20.0 E 8 10 1025.7 - 0.0 - - 10 - - - -
19/06:30pm 20.4 E 6 10 1025.2 - 0.0 - - 10 - - - -
19/06:00pm 20.5 ESE 8 13 1024.7 R 0.0 Fine Mostly clear 25 - - - -
19/05:30pm 20.9 E 7 12 1024.4 - 0.0 - - 10 - - - -
19/05:00pm 21.4 ESE 9 14 1024.1 - 0.0 - Mostly clear 10 - - - -
19/04:30pm 21.7 ESE 10 17 1023.8 - 0.0 - Mostly clear 10 - - - -
19/04:00pm 22.2 ESE 9 15 1023.7 - 0.0 - Mostly clear 10 - - - -
19/03:30pm 22.3 ESE 10 18 1023.6 - 0.0 - Mostly clear 10 - - - -
19/03:00pm 23.7 ESE 11 17 1023.5 F 0.0 Fine Mostly clear 30 - - - -
19/02:30pm 23.2 ESE 12 18 1024.0 - 0.0 - Mostly clear 10 - - - -
19/02:00pm 23.3 ESE 13 20 1024.2 - 0.0 - - 10 - - - -
19/01:30pm 23.0 ESE 11 18 1024.6 - 0.0 - - 10 - - - -
19/01:00pm 24.4 ESE 9 14 1025.0 - 0.0 - - 10 - - - -
19/12:30pm 23.4 E 11 16 1025.4 - 0.0 - Partly cloudy 10 - - - -
19/12:00pm 23.8 E 11 16 1025.7 F 0.0 Fine Partly cloudy 40 - - - -
19/11:30am 23.9 ESE 10 15 1026.1 - 0.0 - Partly cloudy 10 - - - -
19/11:00am 24.2 ESE 8 14 1026.6 - 0.0 - Partly cloudy 10 - - - -
19/10:30am 23.2 ESE 9 14 1026.9 - 0.0 - Partly cloudy 10 - - - -
19/10:00am 23.1 ESE 9 14 1027.4 - 0.0 - Partly cloudy 10 - - - -
19/09:30am 22.9 SE 9 14 1027.7 - 0.0 - Partly cloudy 10 - - - -
19/09:00am 22.4 ESE 10 14 1027.7 R 0.0 Fine Mostly clear 30 - - - -
19/08:30am 22.6 SE 8 14 1027.9 - 0.0 - Mostly clear 10 - - - -
19/08:00am 21.3 S 6 8 1027.8 - 0.0 - Mostly clear 10 - - - -
19/07:30am 20.1 SSW 7 10 1027.7 - 0.0 - Mostly clear 10 - - - -
19/07:00am 18.8 SSW 7 9 1027.6 - 0.0 - Mostly clear 10 - - - -
19/06:30am 17.3 SSW 7 9 1027.1 - 0.0 - Mostly clear 10 - - - -
19/06:00am 15.4 SSW 7 9 1026.7 S 0.0 Fine Mostly clear 30 - - - -
19/05:30am 15.0 SSW 6 8 1026.6 - 0.0 - Mostly clear 10 - - - -
19/05:00am 14.5 SSW 6 8 1026.1 - 0.0 - Mostly clear 10 - - - -
19/04:30am 14.8 SSW 6 8 1025.9 - 0.0 - Mostly clear 10 - - - -
19/04:00am 16.1 SSW 6 8 1025.8 - 0.0 - Mostly clear 10 - - - -
19/03:30am 17.4 S 6 8 1025.6 - 0.0 - Mostly clear 10 - - - -
19/03:00am 16.7 SSW 6 8 1025.5 F 0.0 Fine Partly cloudy 30 - - - -
19/02:30am 17.0 S 6 9 1025.6 - 0.0 - Mostly clear 10 - - - -
19/02:00am 17.8 S 7 10 1025.6 - 0.0 - Partly cloudy 10 - - - -
19/01:30am 17.8 S 7 11 1025.7 - 0.0 - Mostly clear 10 - - - -
19/01:00am 17.5 S 7 10 1026.1 - 0.0 - Mostly clear 10 - - - -
19/12:30am 17.7 SSE 7 10 1026.4 - 0.0 - Mostly clear 10 - - - -
19/12:00am 17.3 S 8 13 1026.5 S 0.0 Distant precip. Mostly clear 30 - - - -
 
Date/Time
EST
Temp

°C
Wind Pressure Rain
since 9am
mm
Weather Cloud Vis
km
Sea
Height
m
Swell
Dir
 
Speed
knots
Gust
knots
hPa Trend Height
m
Period
s
Dir
18/11:30pm 17.8 SSE 7 13 1026.9 - 0.0 - Mostly clear 10 - - - -
18/11:00pm 18.2 S 6 10 1027.0 - 0.0 - Partly cloudy 10 - - - -
18/10:30pm 18.4 S 6 9 1027.1 - 0.0 - Mostly clear 10 - - - -
18/10:00pm 18.8 SSE 5 10 1027.1 - 0.0 - Mostly clear 10 - - - -
18/09:30pm 19.6 SSE 7 11 1027.2 - 0.0 - Mostly clear 10 - - - -
18/09:00pm 20.0 SE 8 13 1026.9 F 0.0 Fine Mostly cloudy 30 - - - -
18/08:30pm 20.1 SSE 7 12 1026.8 - 0.0 - Mostly clear 10 - - - -
18/08:00pm 20.1 SE 8 12 1026.7 - 0.0 - Mostly clear 10 - - - -
18/07:30pm 20.0 ESE 11 19 1026.6 - 0.0 - Mostly clear 10 - - - -
18/07:00pm 19.8 ESE 11 19 1026.2 - 0.0 - Mostly clear 10 - - - -
18/06:30pm 20.1 E 11 17 1025.8 - 0.0 - Mostly clear 10 - - - -
18/06:00pm 20.0 E 11 18 1025.3 R 0.0 Fine Mostly cloudy 30 - - - -
18/05:30pm 19.9 ESE 13 20 1024.8 - 0.0 - Mostly clear 10 - - - -
18/05:00pm 20.4 ESE 13 20 1024.4 - 0.0 - Mostly clear 10 - - - -
18/04:30pm 20.9 ESE 13 22 1024.0 - 0.0 - - 10 - - - -
18/04:00pm 22.0 ESE 13 21 1023.8 - 0.0 - Partly cloudy 10 - - - -
18/03:30pm 22.2 ESE 11 18 1023.7 - 0.0 - Partly cloudy 10 - - - -
18/03:00pm 22.3 ESE 13 21 1023.5 R 0.0 Fine Mostly clear 30 - - - -
18/02:30pm 23.3 ESE 13 22 1023.7 - 0.0 - - 10 - - - -
18/02:00pm 22.8 ESE 14 22 1023.9 - 0.0 - - 10 - - - -
18/01:30pm 23.4 ESE 13 19 1024.0 - 0.0 - - 10 - - - -
18/01:00pm 23.9 ESE 12 18 1024.3 - 0.0 - - 10 - - - -
18/12:30pm 24.1 E 14 20 1024.5 - 0.0 - - 10 - - - -
18/12:00pm 23.5 E 13 21 1024.7 R 0.0 Fine Partly cloudy 30 - - - -
18/11:30am 23.7 E 13 20 1025.2 - 0.0 - Partly cloudy 10 - - - -
18/11:00am 24.1 E 11 20 1025.3 - 0.0 - Mostly clear 10 - - - -
18/10:30am 23.4 ESE 11 19 1025.6 - 0.0 - Mostly clear 10 - - - -
18/10:00am 23.3 ESE 11 17 1025.7 - 0.0 - Mostly clear 10 - - - -
18/09:30am 23.5 ESE 11 17 1025.9 - 0.0 - Partly cloudy 10 - - - -
18/09:00am 23.4 ESE 11 16 1025.9 R 0.0 Fine Mostly clear 30 - - - -
18/08:30am 21.4 SE 8 13 1025.9 - 0.0 - Mostly clear 10 - - - -
18/08:00am 21.0 SSE 9 14 1025.8 - 0.0 - Mostly clear 10 - - - -
18/07:30am 20.4 S 9 12 1025.7 - 0.0 - Mostly clear 10 - - - -
18/07:00am 19.2 S 8 11 1025.3 - 0.0 - Mostly clear 10 - - - -
18/06:30am 17.7 SSW 8 10 1024.9 - 0.0 - Mostly clear 10 - - - -
18/06:00am 16.1 SSW 9 10 1024.5 R 0.0 Distant precip. Mostly clear 30 - - - -
18/05:30am 15.2 SSW 8 11 1024.3 - 0.0 - Mostly clear 10 - - - -
18/05:00am 15.0 SSW 8 10 1024.0 - 0.0 - Mostly clear 10 - - - -
18/04:30am 15.0 SSW 7 8 1023.6 - 0.0 - Mostly clear 10 - - - -
18/04:00am 14.7 SSW 7 9 1023.1 - 0.0 - - 10 - - - -
18/03:30am 15.4 SSW 7 10 1022.8 - 0.0 - - 10 - - - -
18/03:00am 17.9 S 8 13 1022.5 R 0.0 Distant precip. Partly cloudy 30 - - - -
18/02:30am 17.8 S 8 14 1022.4 - 0.0 - Mostly clear 10 - - - -
18/02:00am 18.1 S 9 15 1022.3 - 0.0 - Mostly clear 10 - - - -
18/01:30am 18.5 SSE 9 14 1022.5 - 0.0 - Mostly clear 10 - - - -
18/01:00am 19.0 SSE 9 15 1022.5 - 0.0 - Mostly clear 10 - - - -
18/12:30am 19.1 SSE 7 13 1022.6 - 0.0 - Mostly clear 10 - - - -
18/12:00am 19.4 SSE 5 8 1022.7 R 0.0 Distant precip. Mostly clear 30 - - - -
 
Date/Time
EST
Temp

°C
Wind Pressure Rain
since 9am
mm
Weather Cloud Vis
km
Sea
Height
m
Swell
Dir
 
Speed
knots
Gust
knots
hPa Trend Height
m
Period
s
Dir
17/11:30pm 19.9 SE 7 10 1022.7 - 0.0 - Mostly clear 10 - - - -

Other Formats:

Comma delimited format used in spreadsheet applications
http://www.bom.gov.au/fwo/IDQ60701/IDQ60701.94578.axf

JavaScript Object Notation format (JSON) in row-major order
http://www.bom.gov.au/fwo/IDQ60701/IDQ60701.94578.json